createdAt,value
2019-04-07T00:00:00.766Z,12.15
2019-04-07T00:05:13.604Z,11.80
2019-04-07T00:10:12.819Z,11.60
2019-04-07T00:15:16.836Z,11.83
2019-04-07T00:20:20.864Z,11.40
2019-04-07T00:25:25.069Z,12.10
2019-04-07T00:30:29.298Z,11.93
2019-04-07T00:35:33.611Z,11.55
2019-04-07T00:40:38.177Z,12.28
2019-04-07T00:45:42.503Z,12.15
2019-04-07T00:50:46.945Z,12.05
2019-04-07T00:55:50.522Z,11.55
2019-04-07T01:00:54.074Z,11.97
2019-04-07T01:05:57.605Z,11.80
2019-04-07T01:11:01.340Z,12.15
2019-04-07T01:16:05.253Z,11.33
2019-04-07T01:21:09.426Z,11.40
2019-04-07T01:26:13.809Z,12.00
2019-04-07T01:31:17.961Z,11.70
2019-04-07T01:36:21.615Z,12.30
2019-04-07T01:41:30.712Z,11.25
2019-04-07T01:46:55.990Z,11.85
2019-04-07T01:52:04.219Z,11.38
2019-04-07T01:57:21.824Z,11.15
2019-04-07T02:02:26.976Z,11.53
2019-04-07T02:07:47.073Z,12.10
2019-04-07T02:13:08.556Z,11.25
2019-04-07T02:18:25.603Z,11.75
2019-04-07T02:23:30.779Z,11.85
2019-04-07T02:28:35.881Z,11.05
2019-04-07T02:33:41.050Z,10.98
2019-04-07T02:38:46.207Z,11.10
2019-04-07T02:43:51.358Z,11.35
2019-04-07T02:49:12.626Z,11.55
2019-04-07T02:54:27.394Z,11.80
2019-04-07T02:59:42.994Z,11.48
2019-04-07T03:05:06.430Z,11.75
2019-04-07T03:10:12.981Z,11.38
2019-04-07T03:15:34.532Z,11.08
2019-04-07T03:20:43.433Z,12.28
2019-04-07T03:25:54.936Z,11.53
2019-04-07T03:31:13.395Z,11.35
2019-04-07T03:36:24.277Z,11.15
2019-04-07T03:41:38.636Z,11.95
2019-04-07T03:46:44.148Z,10.50
2019-04-07T03:51:51.984Z,11.43
2019-04-07T03:56:57.105Z,11.60
2019-04-07T04:02:02.213Z,11.57
2019-04-07T04:07:20.214Z,11.43
2019-04-07T04:12:22.768Z,11.25
2019-04-07T04:17:27.125Z,11.22
2019-04-07T04:22:31.107Z,11.48
2019-04-07T04:27:35.298Z,11.20
2019-04-07T04:32:39.757Z,11.38
2019-04-07T04:37:48.761Z,11.25
2019-04-07T04:42:48.809Z,11.28
2019-04-07T04:47:52.362Z,11.35
2019-04-07T04:52:56.426Z,11.08
2019-04-07T04:58:00.252Z,11.05
2019-04-07T05:03:04.573Z,11.18
2019-04-07T05:08:08.399Z,10.95
2019-04-07T05:13:12.156Z,11.18
2019-04-07T05:18:16.419Z,11.57
2019-04-07T05:23:20.558Z,11.57
2019-04-07T05:28:24.440Z,10.68
2019-04-07T05:33:28.630Z,11.18
2019-04-07T05:38:32.221Z,10.53
2019-04-07T05:43:35.777Z,10.88
2019-04-07T05:48:39.384Z,11.30
2019-04-07T05:53:46.437Z,10.82
2019-04-07T05:58:48.393Z,11.03
2019-04-07T06:03:52.210Z,11.10
2019-04-07T06:08:55.777Z,12.00
2019-04-07T06:13:59.322Z,11.12
2019-04-07T06:19:06.999Z,11.57
2019-04-07T06:24:08.096Z,11.10
2019-04-07T06:29:11.750Z,10.68
2019-04-07T06:34:16.163Z,12.07
2019-04-07T06:39:20.130Z,11.05
2019-04-07T06:44:24.301Z,11.45
2019-04-07T06:49:29.662Z,11.00
2019-04-07T06:54:43.821Z,11.10
2019-04-07T06:59:49.234Z,10.65
2019-04-07T07:05:13.252Z,11.57
2019-04-07T07:10:37.007Z,11.15
2019-04-07T07:15:54.587Z,10.25
2019-04-07T07:21:01.774Z,10.90
2019-04-07T07:26:05.952Z,11.03
2019-04-07T07:31:10.013Z,10.50
2019-04-07T07:36:17.339Z,10.32
2019-04-07T07:41:20.651Z,10.60
2019-04-07T07:46:24.041Z,9.85
2019-04-07T07:51:27.606Z,10.68
2019-04-07T07:56:31.284Z,10.30
2019-04-07T08:01:34.850Z,10.48
2019-04-07T08:06:40.736Z,10.45
2019-04-07T08:11:43.625Z,10.58
2019-04-07T08:16:47.864Z,10.50
2019-04-07T08:21:52.029Z,10.30
2019-04-07T08:26:57.123Z,9.63
2019-04-07T08:32:01.074Z,9.95
2019-04-07T08:37:04.828Z,10.63
2019-04-07T08:42:11.790Z,10.08
2019-04-07T08:47:19.117Z,9.70
2019-04-07T08:52:19.621Z,10.60
2019-04-07T08:57:23.162Z,9.95
2019-04-07T09:02:29.190Z,10.32
2019-04-07T09:07:33.471Z,9.78
2019-04-07T09:12:37.029Z,9.40
2019-04-07T09:17:47.381Z,9.88
2019-04-07T09:23:11.356Z,9.40
2019-04-07T09:28:23.923Z,9.48
2019-04-07T09:33:48.118Z,9.78
2019-04-07T09:39:04.129Z,9.80
2019-04-07T09:44:26.525Z,9.73
2019-04-07T09:49:32.009Z,9.40
2019-04-07T09:54:54.641Z,9.20
2019-04-07T09:59:59.472Z,9.40
2019-04-07T10:05:04.909Z,9.40
2019-04-07T10:10:13.738Z,9.30
2019-04-07T10:15:17.712Z,8.63
2019-04-07T10:20:25.990Z,9.45
2019-04-07T10:25:31.527Z,8.80
2019-04-07T10:30:45.956Z,9.20
2019-04-07T10:35:51.319Z,9.20
2019-04-07T10:40:56.701Z,9.10
2019-04-07T10:46:07.906Z,9.43
2019-04-07T10:51:16.344Z,8.98
2019-04-07T10:56:30.914Z,9.10
2019-04-07T11:01:36.373Z,8.68
2019-04-07T11:06:41.690Z,9.00
2019-04-07T11:11:49.394Z,8.53
2019-04-07T11:17:14.050Z,8.80
2019-04-07T11:22:19.876Z,8.60
2019-04-07T11:27:37.640Z,9.23
2019-04-07T11:32:53.325Z,8.88
2019-04-07T11:38:13.679Z,8.73
2019-04-07T11:43:27.891Z,8.85
2019-04-07T11:48:35.962Z,9.20
2019-04-07T11:53:44.246Z,8.73
2019-04-07T11:59:02.585Z,8.63
2019-04-07T12:04:15.454Z,8.63
2019-04-07T12:09:37.028Z,8.88
2019-04-07T12:14:47.178Z,8.65
2019-04-07T12:19:54.920Z,8.35
2019-04-07T12:25:01.991Z,8.75
2019-04-07T12:30:25.235Z,8.58
2019-04-07T12:35:36.560Z,8.25
2019-04-07T12:41:12.527Z,8.88
2019-04-07T12:46:05.596Z,8.38
2019-04-07T12:51:19.361Z,8.75
2019-04-07T12:56:31.783Z,8.28
2019-04-07T13:01:36.161Z,8.50
2019-04-07T13:06:44.936Z,8.70
2019-04-07T13:11:50.316Z,7.97
2019-04-07T13:16:58.808Z,8.10
2019-04-07T13:22:13.350Z,8.65
2019-04-07T13:27:34.889Z,8.45
2019-04-07T13:32:52.399Z,8.23
2019-04-07T13:38:12.566Z,8.15
2019-04-07T13:43:18.700Z,7.83
2019-04-07T13:48:26.635Z,8.18
2019-04-07T13:53:48.062Z,8.18
2019-04-07T13:58:53.217Z,7.83
2019-04-07T14:03:59.015Z,8.05
2019-04-07T14:09:07.478Z,7.95
2019-04-07T14:14:15.720Z,8.23
2019-04-07T14:19:39.724Z,7.58
2019-04-07T14:24:45.013Z,8.05
2019-04-07T14:29:50.281Z,8.23
2019-04-07T14:35:02.220Z,7.87
2019-04-07T14:40:12.186Z,8.05
2019-04-07T14:45:21.089Z,8.20
2019-04-07T14:50:28.942Z,7.50
2019-04-07T14:55:45.987Z,8.38
2019-04-07T15:00:51.126Z,8.20
2019-04-07T15:05:57.983Z,8.50
2019-04-07T15:11:08.929Z,11.03
2019-04-07T15:16:13.498Z,11.50
2019-04-07T15:21:17.254Z,11.30
2019-04-07T15:26:22.054Z,12.53
2019-04-07T15:31:26.426Z,12.35
2019-04-07T15:36:30.082Z,13.78
2019-04-07T15:41:33.594Z,13.55
2019-04-07T15:46:37.078Z,14.18
2019-04-07T15:51:41.634Z,13.83
2019-04-07T15:56:48.093Z,13.55
2019-04-07T16:01:50.568Z,14.05
2019-04-07T16:06:54.391Z,13.83
2019-04-07T16:11:59.179Z,13.48
2019-04-07T16:17:07.287Z,13.32
2019-04-07T16:22:12.432Z,13.75
2019-04-07T16:27:15.910Z,13.15
2019-04-07T16:32:19.679Z,13.00
2019-04-07T16:37:23.343Z,12.50
2019-04-07T16:42:27.568Z,12.88
2019-04-07T16:47:34.508Z,12.07
2019-04-07T16:52:36.525Z,12.25
2019-04-07T16:57:40.434Z,12.20
2019-04-07T17:02:44.745Z,12.75
2019-04-07T17:07:48.756Z,13.35
2019-04-07T17:12:52.594Z,14.70
2019-04-07T17:17:56.964Z,19.07
2019-04-07T17:23:00.837Z,16.70
2019-04-07T17:28:06.269Z,15.90
2019-04-07T17:33:10.155Z,14.07
2019-04-07T17:38:15.901Z,13.60
2019-04-07T17:43:37.577Z,13.28
2019-04-07T17:48:40.416Z,13.25
2019-04-07T17:53:45.384Z,13.53
2019-04-07T17:58:53.978Z,12.80
2019-04-07T18:03:59.464Z,12.70
2019-04-07T18:09:12.312Z,12.78
2019-04-07T18:14:29.126Z,13.38
2019-04-07T18:19:41.294Z,13.60
2019-04-07T18:24:46.567Z,12.65
2019-04-07T18:30:01.732Z,12.65
2019-04-07T18:35:23.764Z,12.53
2019-04-07T18:40:45.095Z,12.23
2019-04-07T18:46:03.136Z,12.35
2019-04-07T18:51:12.621Z,12.05
2019-04-07T18:56:27.098Z,12.07
2019-04-07T19:01:41.493Z,11.85
2019-04-07T19:06:58.734Z,12.30
2019-04-07T19:12:13.393Z,11.90
2019-04-07T19:17:16.514Z,11.78
2019-04-07T19:22:36.713Z,11.48
2019-04-07T19:28:00.996Z,11.05
2019-04-07T19:33:12.502Z,11.33
2019-04-07T19:38:19.861Z,11.18
2019-04-07T19:43:29.583Z,10.95
2019-04-07T19:48:50.555Z,11.65
2019-04-07T19:54:00.585Z,10.93
2019-04-07T19:59:17.594Z,10.72
2019-04-07T20:04:28.545Z,11.00
2019-04-07T20:09:34.301Z,10.65
2019-04-07T20:14:59.240Z,10.18
2019-04-07T20:20:04.516Z,9.75
2019-04-07T20:25:20.414Z,10.40
2019-04-07T20:30:40.708Z,10.10
2019-04-07T20:36:02.418Z,9.70
2019-04-07T20:41:15.681Z,10.23
2019-04-07T20:46:23.393Z,10.28
2019-04-07T20:51:33.281Z,10.25
2019-04-07T20:56:48.414Z,10.38
2019-04-07T21:02:05.555Z,10.48
2019-04-07T21:07:18.598Z,10.10
2019-04-07T21:12:28.602Z,9.88
2019-04-07T21:17:33.075Z,9.68
2019-04-07T21:22:38.976Z,10.48
2019-04-07T21:27:58.927Z,9.85
2019-04-07T21:33:04.525Z,10.78
2019-04-07T21:38:12.394Z,9.85
2019-04-07T21:43:24.317Z,10.93
2019-04-07T21:48:44.228Z,11.60
2019-04-07T21:54:02.701Z,11.08
2019-04-07T21:59:18.560Z,11.03
2019-04-07T22:04:40.381Z,11.25
2019-04-07T22:09:49.442Z,11.40
2019-04-07T22:14:50.752Z,11.38
2019-04-07T22:19:54.338Z,11.08
2019-04-07T22:24:58.118Z,11.15
2019-04-07T22:30:04.813Z,10.82
2019-04-07T22:35:08.483Z,11.65
2019-04-07T22:40:15.130Z,11.15
2019-04-07T22:45:19.104Z,11.28
2019-04-07T22:50:23.370Z,11.80
2019-04-07T22:55:27.081Z,11.22
2019-04-07T23:00:30.857Z,11.85
2019-04-07T23:05:34.371Z,11.80
2019-04-07T23:10:37.948Z,11.73
2019-04-07T23:15:45.492Z,11.25
2019-04-07T23:20:46.760Z,11.75
2019-04-07T23:25:50.358Z,11.35
2019-04-07T23:30:54.965Z,11.08
2019-04-07T23:35:59.617Z,10.72
2019-04-07T23:41:05.389Z,11.95
2019-04-07T23:46:19.573Z,11.55
2019-04-07T23:51:14.320Z,11.73
2019-04-07T23:56:18.139Z,11.08
